createdAt,value
2023-01-25T00:00:50.261Z,102694.66
2023-01-25T00:02:53.318Z,102690.38
2023-01-25T00:05:09.032Z,102686.06
2023-01-25T00:07:12.147Z,102691.97
2023-01-25T00:09:17.452Z,102692.66
2023-01-25T00:11:20.565Z,102701.16
2023-01-25T00:13:22.426Z,102697.84
2023-01-25T00:15:24.974Z,102697.84
2023-01-25T00:17:27.365Z,102690.13
2023-01-25T00:19:35.141Z,102693.53
2023-01-25T00:21:38.109Z,102694.34
2023-01-25T00:23:40.082Z,102701.31
2023-01-25T00:25:41.969Z,102699.59
2023-01-25T00:27:43.842Z,102695.22
2023-01-25T00:29:46.898Z,102689.25
2023-01-25T00:31:57.981Z,102680.66
2023-01-25T00:34:21.718Z,102683.13
2023-01-25T00:36:38.770Z,102686.47
2023-01-25T00:38:43.542Z,102694.03
2023-01-25T00:40:46.458Z,102681.31
2023-01-25T00:43:01.029Z,102682.09
2023-01-25T00:45:04.328Z,102682.09
2023-01-25T00:47:06.722Z,102670.88
2023-01-25T00:49:22.113Z,102678.50
2023-01-25T00:51:25.012Z,102680.09
2023-01-25T00:53:26.907Z,102669.09
2023-01-25T00:55:28.853Z,102663.88
2023-01-25T00:57:32.080Z,102663.72
2023-01-25T00:59:34.621Z,102658.06
2023-01-25T01:01:38.132Z,102664.56
2023-01-25T01:03:40.507Z,102667.06
2023-01-25T01:05:43.357Z,102661.06
2023-01-25T01:07:45.432Z,102661.78
2023-01-25T01:09:54.104Z,102659.34
2023-01-25T01:11:56.303Z,102659.34
2023-01-25T01:13:59.023Z,102666.16
2023-01-25T01:16:03.320Z,102658.38
2023-01-25T01:18:05.220Z,102657.66
2023-01-25T01:20:07.516Z,102660.91
2023-01-25T01:22:09.560Z,102654.97
2023-01-25T01:24:11.880Z,102653.94
2023-01-25T01:26:16.297Z,102649.41
2023-01-25T01:28:19.198Z,102649.41
2023-01-25T01:30:21.247Z,102646.16
2023-01-25T01:32:23.419Z,102648.69
2023-01-25T01:34:25.572Z,102655.19
2023-01-25T01:36:31.765Z,102652.41
2023-01-25T01:38:33.757Z,102652.13
2023-01-25T01:40:35.718Z,102643.53
2023-01-25T01:43:00.364Z,102640.75
2023-01-25T01:45:02.373Z,102640.84
2023-01-25T01:47:04.249Z,102630.78
2023-01-25T01:49:41.820Z,102636.38
2023-01-25T01:51:49.003Z,102643.28
2023-01-25T01:54:00.115Z,102640.75
2023-01-25T01:56:07.993Z,102635.44
2023-01-25T01:58:15.817Z,102635.44
2023-01-25T02:00:25.796Z,102633.34
2023-01-25T02:02:27.873Z,102640.16
2023-01-25T02:04:31.032Z,102643.50
2023-01-25T02:06:56.015Z,102644.38
2023-01-25T02:08:58.715Z,102640.72
2023-01-25T02:11:03.690Z,102642.56
2023-01-25T02:13:06.702Z,102647.16
2023-01-25T02:15:09.621Z,102642.84
2023-01-25T02:17:12.714Z,102635.84
2023-01-25T02:19:31.330Z,102637.59
2023-01-25T02:21:40.097Z,102624.97
2023-01-25T02:24:17.214Z,102625.69
2023-01-25T02:26:19.811Z,102625.59
2023-01-25T02:28:27.952Z,102615.16
2023-01-25T02:30:31.403Z,102615.31
2023-01-25T02:32:33.651Z,102615.31
2023-01-25T02:34:36.490Z,102614.47
2023-01-25T02:36:38.528Z,102610.44
2023-01-25T02:38:54.415Z,102604.56
2023-01-25T02:41:04.600Z,102605.16
2023-01-25T02:43:07.606Z,102608.34
2023-01-25T02:45:22.828Z,102606.22
2023-01-25T02:47:24.856Z,102602.72
2023-01-25T02:49:27.117Z,102595.19
2023-01-25T02:51:34.046Z,102599.91
2023-01-25T02:53:36.157Z,102599.91
2023-01-25T02:55:38.050Z,102598.34
2023-01-25T02:57:41.167Z,102598.34
2023-01-25T02:59:43.072Z,102601.53
2023-01-25T03:01:51.723Z,102599.75
2023-01-25T03:03:55.624Z,102601.59
2023-01-25T03:05:59.510Z,102592.94
2023-01-25T03:08:01.463Z,102594.66
2023-01-25T03:10:04.621Z,102587.84
2023-01-25T03:12:07.675Z,102584.34
2023-01-25T03:14:09.618Z,102575.75
2023-01-25T03:16:13.471Z,102573.22
2023-01-25T03:18:17.399Z,102572.25
2023-01-25T03:20:19.429Z,102566.97
2023-01-25T03:22:22.434Z,102563.59
2023-01-25T03:24:24.293Z,102563.50
2023-01-25T03:26:27.968Z,102560.81
2023-01-25T03:28:33.085Z,102562.47
2023-01-25T03:30:36.026Z,102570.91
2023-01-25T03:32:38.446Z,102570.00
2023-01-25T03:34:41.466Z,102559.78
2023-01-25T03:36:44.430Z,102563.00
2023-01-25T03:38:47.417Z,102564.59
2023-01-25T03:40:50.440Z,102556.91
2023-01-25T03:42:53.807Z,102558.66
2023-01-25T03:44:57.642Z,102543.06
2023-01-25T03:46:59.604Z,102549.78
2023-01-25T03:49:01.590Z,102543.16
2023-01-25T03:51:03.474Z,102537.81
2023-01-25T03:53:17.245Z,102547.34
2023-01-25T03:55:23.309Z,102540.81
2023-01-25T03:57:31.912Z,102543.78
2023-01-25T03:59:35.826Z,102539.91
2023-01-25T04:01:38.787Z,102545.91
2023-01-25T04:03:40.753Z,102532.28
2023-01-25T04:05:43.849Z,102531.38
2023-01-25T04:07:45.849Z,102536.06
2023-01-25T04:09:50.431Z,102553.06
2023-01-25T04:11:58.082Z,102548.16
2023-01-25T04:14:00.054Z,102529.25
2023-01-25T04:16:08.021Z,102524.19
2023-01-25T04:18:10.337Z,102527.59
2023-01-25T04:20:12.718Z,102532.25
2023-01-25T04:22:14.664Z,102526.41
2023-01-25T04:24:22.331Z,102521.22
2023-01-25T04:26:24.975Z,102527.69
2023-01-25T04:28:28.124Z,102518.25
2023-01-25T04:30:29.970Z,102528.56
2023-01-25T04:32:36.368Z,102524.56
2023-01-25T04:34:38.443Z,102532.06
2023-01-25T04:36:40.374Z,102533.81
2023-01-25T04:38:44.304Z,102524.63
2023-01-25T04:40:53.000Z,102520.19
2023-01-25T04:42:56.097Z,102507.94
2023-01-25T04:44:57.962Z,102520.63
2023-01-25T04:46:59.832Z,102513.88
2023-01-25T04:49:01.909Z,102517.91
2023-01-25T04:51:06.022Z,102510.91
2023-01-25T04:53:09.172Z,102508.81
2023-01-25T04:55:12.390Z,102505.41
2023-01-25T04:57:15.431Z,102502.69
2023-01-25T04:59:17.317Z,102510.91
2023-01-25T05:01:19.456Z,102504.44
2023-01-25T05:03:21.349Z,102508.47
2023-01-25T05:05:23.429Z,102511.06
2023-01-25T05:07:29.480Z,102516.06
2023-01-25T05:09:31.445Z,102518.63
2023-01-25T05:11:33.476Z,102516.78
2023-01-25T05:13:35.430Z,102513.16
2023-01-25T05:15:37.501Z,102519.16
2023-01-25T05:17:39.484Z,102509.00
2023-01-25T05:19:41.476Z,102513.53
2023-01-25T05:21:58.414Z,102509.94
2023-01-25T05:24:00.510Z,102519.16
2023-01-25T05:26:20.953Z,102512.03
2023-01-25T05:28:28.961Z,102515.09
2023-01-25T05:30:33.322Z,102513.38
2023-01-25T05:32:35.258Z,102512.66
2023-01-25T05:34:38.245Z,102505.13
2023-01-25T05:36:40.137Z,102504.94
2023-01-25T05:38:42.016Z,102509.97
2023-01-25T05:40:43.931Z,102511.41
2023-01-25T05:43:00.146Z,102501.97
2023-01-25T05:45:02.104Z,102496.72
2023-01-25T05:47:05.085Z,102498.75
2023-01-25T05:49:08.169Z,102502.69
2023-01-25T05:51:10.142Z,102502.69
2023-01-25T05:53:13.107Z,102504.00
2023-01-25T05:55:15.774Z,102500.38
2023-01-25T05:57:19.829Z,102498.81
2023-01-25T05:59:21.764Z,102498.06
2023-01-25T06:01:24.573Z,102497.78
2023-01-25T06:03:27.906Z,102500.22
2023-01-25T06:05:30.837Z,102497.25
2023-01-25T06:07:36.951Z,102495.59
2023-01-25T06:09:39.985Z,102490.59
2023-01-25T06:11:45.953Z,102483.97
2023-01-25T06:13:48.897Z,102476.78
2023-01-25T06:15:55.458Z,102471.56
2023-01-25T06:17:57.467Z,102468.56
2023-01-25T06:19:59.378Z,102473.03
2023-01-25T06:22:01.317Z,102461.66
2023-01-25T06:24:04.849Z,102474.84
2023-01-25T06:26:13.462Z,102473.13
2023-01-25T06:28:15.385Z,102476.63
2023-01-25T06:30:17.547Z,102479.75
2023-01-25T06:32:22.119Z,102483.28
2023-01-25T06:34:26.225Z,102482.75
2023-01-25T06:36:30.661Z,102479.50
2023-01-25T06:38:34.211Z,102480.31
2023-01-25T06:40:36.169Z,102482.03
2023-01-25T06:42:40.222Z,102475.56
2023-01-25T06:44:42.192Z,102478.53
2023-01-25T06:46:46.230Z,102478.38
2023-01-25T06:48:49.350Z,102476.69
2023-01-25T06:51:03.702Z,102472.06
2023-01-25T06:53:05.805Z,102464.72
2023-01-25T06:55:10.545Z,102469.97
2023-01-25T06:57:14.750Z,102468.66
2023-01-25T06:59:18.882Z,102474.00
2023-01-25T07:01:27.488Z,102470.59
2023-01-25T07:03:31.813Z,102464.72
2023-01-25T07:05:34.775Z,102471.97
2023-01-25T07:07:36.843Z,102466.22
2023-01-25T07:09:38.930Z,102463.50
2023-01-25T07:11:46.877Z,102456.66
2023-01-25T07:13:50.827Z,102452.66
2023-01-25T07:16:00.006Z,102449.06
2023-01-25T07:18:15.474Z,102447.78
2023-01-25T07:20:18.243Z,102443.84
2023-01-25T07:22:27.014Z,102438.13
2023-01-25T07:24:31.037Z,102440.94
2023-01-25T07:26:33.152Z,102438.28
2023-01-25T07:28:36.548Z,102440.59
2023-01-25T07:30:47.330Z,102441.38
2023-01-25T07:32:50.219Z,102438.28
2023-01-25T07:34:57.215Z,102446.53
2023-01-25T07:37:11.467Z,102434.66
2023-01-25T07:39:16.024Z,102440.06
2023-01-25T07:41:29.214Z,102437.16
2023-01-25T07:43:33.397Z,102440.56
2023-01-25T07:45:35.424Z,102435.50
2023-01-25T07:47:38.891Z,102439.16
2023-01-25T07:49:45.968Z,102435.22
2023-01-25T07:51:52.011Z,102431.75
2023-01-25T07:54:05.044Z,102430.25
2023-01-25T07:56:08.231Z,102431.13
2023-01-25T07:58:13.095Z,102430.41
2023-01-25T08:00:18.563Z,102435.97
2023-01-25T08:02:21.167Z,102435.22
2023-01-25T08:04:39.805Z,102426.41
2023-01-25T08:06:52.704Z,102427.28
2023-01-25T08:08:57.853Z,102424.84
2023-01-25T08:11:14.336Z,102435.22
2023-01-25T08:13:22.185Z,102430.56
2023-01-25T08:15:57.187Z,102429.38
2023-01-25T08:18:02.565Z,102421.50
2023-01-25T08:20:06.366Z,102422.38
2023-01-25T08:22:09.226Z,102416.91
2023-01-25T08:24:12.410Z,102421.75
2023-01-25T08:26:18.794Z,102416.06
2023-01-25T08:28:23.724Z,102415.19
2023-01-25T08:30:31.736Z,102416.63
2023-01-25T08:32:37.181Z,102413.53
2023-01-25T08:34:47.494Z,102412.09
2023-01-25T08:39:00.886Z,102413.69
2023-01-25T08:41:10.697Z,102413.06
2023-01-25T08:43:14.617Z,102404.34
2023-01-25T08:45:26.196Z,102406.44
2023-01-25T08:47:28.188Z,102399.78
2023-01-25T08:49:34.627Z,102404.84
2023-01-25T08:51:43.012Z,102399.94
2023-01-25T08:53:45.903Z,102397.25
2023-01-25T08:55:49.509Z,102397.59
2023-01-25T08:57:56.697Z,102396.31
2023-01-25T09:00:01.488Z,102403.31
2023-01-25T09:02:12.869Z,102390.75
2023-01-25T09:04:14.906Z,102391.19
2023-01-25T09:06:18.367Z,102381.66
2023-01-25T09:08:26.347Z,102390.41
2023-01-25T09:10:46.292Z,102390.34
2023-01-25T09:12:48.254Z,102391.34
2023-01-25T09:15:00.179Z,102390.50
2023-01-25T09:17:02.127Z,102381.22
2023-01-25T09:19:29.535Z,102385.56
2023-01-25T09:21:35.211Z,102383.59
2023-01-25T09:23:51.191Z,102379.28
2023-01-25T09:26:02.085Z,102377.72
2023-01-25T09:28:11.688Z,102370.53
2023-01-25T09:30:18.739Z,102370.34
2023-01-25T09:32:29.758Z,102366.50
2023-01-25T09:34:32.838Z,102364.56
2023-01-25T09:36:37.238Z,102360.72
2023-01-25T09:38:40.240Z,102363.94
2023-01-25T09:40:52.431Z,102357.91
2023-01-25T09:43:21.712Z,102348.47
2023-01-25T09:45:37.353Z,102345.38
2023-01-25T09:47:52.375Z,102345.06
2023-01-25T09:50:05.097Z,102343.66
2023-01-25T09:52:41.972Z,102341.63
2023-01-25T09:54:47.463Z,102337.75
2023-01-25T09:56:51.850Z,102345.94
2023-01-25T09:59:11.220Z,102333.56
2023-01-25T10:01:37.551Z,102330.81
2023-01-25T10:03:56.815Z,102326.59
2023-01-25T10:06:02.535Z,102330.88
2023-01-25T10:08:29.508Z,102325.53
2023-01-25T10:10:44.336Z,102315.22
2023-01-25T10:12:47.417Z,102327.00
2023-01-25T10:14:59.578Z,102319.53
2023-01-25T10:17:13.651Z,102308.19
2023-01-25T10:19:30.411Z,102311.88
2023-01-25T10:21:55.197Z,102315.22
2023-01-25T10:24:20.903Z,102311.28
2023-01-25T10:26:30.025Z,102312.53
2023-01-25T10:28:56.426Z,102302.94
2023-01-25T10:31:27.715Z,102295.22
2023-01-25T10:33:34.966Z,102295.44
2023-01-25T10:35:50.191Z,102290.34
2023-01-25T10:37:53.643Z,102284.22
2023-01-25T10:40:24.160Z,102279.84
2023-01-25T10:42:29.990Z,102277.06
2023-01-25T10:44:40.927Z,102281.16
2023-01-25T10:46:49.713Z,102269.06
2023-01-25T10:48:57.893Z,102264.00
2023-01-25T10:51:08.916Z,102260.28
2023-01-25T10:53:36.748Z,102256.06
2023-01-25T10:56:17.291Z,102254.63
2023-01-25T10:58:31.901Z,102246.66
2023-01-25T11:00:52.096Z,102248.88
2023-01-25T11:02:56.363Z,102251.69
2023-01-25T11:05:25.446Z,102252.38
2023-01-25T11:07:49.310Z,102243.38
2023-01-25T11:10:32.898Z,102236.69
2023-01-25T11:12:42.441Z,102233.88
2023-01-25T11:14:51.743Z,102241.84
2023-01-25T11:16:58.433Z,102236.03
2023-01-25T11:19:03.028Z,102230.97
2023-01-25T11:21:05.996Z,102220.66
2023-01-25T11:23:27.324Z,102228.28
2023-01-25T11:25:49.529Z,102226.44
2023-01-25T11:28:20.498Z,102215.28
2023-01-25T11:30:30.484Z,102209.06
2023-01-25T11:32:42.049Z,102203.53
2023-01-25T11:34:51.892Z,102202.44
2023-01-25T11:37:31.441Z,102203.84
2023-01-25T11:40:16.107Z,102199.19
2023-01-25T11:43:00.240Z,102212.81
2023-01-25T11:45:23.881Z,102215.19
2023-01-25T11:47:52.264Z,102217.09
2023-01-25T11:50:14.024Z,102215.75
2023-01-25T11:52:35.927Z,102202.59
2023-01-25T11:54:58.264Z,102184.34
2023-01-25T11:57:02.684Z,102186.41
2023-01-25T11:59:32.942Z,102190.63
2023-01-25T12:02:12.251Z,102173.94
2023-01-25T12:04:39.793Z,102177.06
2023-01-25T12:07:04.107Z,102169.00
2023-01-25T12:09:33.585Z,102164.03
2023-01-25T12:12:03.300Z,102162.19
2023-01-25T12:14:39.311Z,102156.41
2023-01-25T12:16:52.886Z,102160.66
2023-01-25T12:19:10.761Z,102153.06
2023-01-25T12:21:37.421Z,102146.75
2023-01-25T12:23:49.157Z,102143.31
2023-01-25T12:25:53.983Z,102134.06
2023-01-25T12:28:17.439Z,102127.44
2023-01-25T12:30:24.312Z,102116.47
2023-01-25T12:32:39.910Z,102114.97
2023-01-25T12:34:48.019Z,102121.28
2023-01-25T12:37:06.400Z,102123.59
2023-01-25T12:39:30.492Z,102114.88
2023-01-25T12:42:13.906Z,102120.47
2023-01-25T12:44:31.076Z,102118.59
2023-01-25T12:46:51.471Z,102122.28
2023-01-25T12:48:59.903Z,102114.75
2023-01-25T12:51:05.145Z,102111.84
2023-01-25T12:53:27.991Z,102108.38
2023-01-25T12:55:33.992Z,102109.81
2023-01-25T12:57:57.977Z,102105.78
2023-01-25T13:00:19.083Z,102109.66
2023-01-25T13:02:41.691Z,102109.81
2023-01-25T13:05:00.843Z,102111.34
2023-01-25T13:07:26.704Z,102115.13
2023-01-25T13:09:43.622Z,102107.28
2023-01-25T13:11:48.075Z,102106.28
2023-01-25T13:14:15.930Z,102105.03
2023-01-25T13:16:32.606Z,102100.25
2023-01-25T13:18:37.573Z,102099.97
2023-01-25T13:20:45.787Z,102098.66
2023-01-25T13:22:49.752Z,102095.59
2023-01-25T13:25:17.641Z,102086.19
2023-01-25T13:27:26.097Z,102084.72
2023-01-25T13:29:40.331Z,102077.25
2023-01-25T13:31:51.894Z,102073.09
2023-01-25T13:33:57.701Z,102075.25
2023-01-25T13:36:39.894Z,102064.94
2023-01-25T13:38:41.812Z,102064.53
2023-01-25T13:40:46.123Z,102063.72
2023-01-25T13:43:05.131Z,102063.22
2023-01-25T13:45:18.978Z,102063.94
2023-01-25T13:47:40.282Z,102061.53
2023-01-25T13:50:15.145Z,102057.19
2023-01-25T13:52:20.363Z,102053.91
2023-01-25T13:54:24.376Z,102049.69
2023-01-25T13:56:36.386Z,102046.38
2023-01-25T13:58:48.180Z,102038.75
2023-01-25T14:00:58.572Z,102033.38
2023-01-25T14:03:01.484Z,102036.06
2023-01-25T14:05:07.821Z,102039.19
2023-01-25T14:07:18.650Z,102024.28
2023-01-25T14:09:20.975Z,102024.72
2023-01-25T14:11:32.056Z,102026.22
2023-01-25T14:13:56.654Z,102031.28
2023-01-25T14:16:04.540Z,102028.75
2023-01-25T14:18:19.868Z,102028.66
2023-01-25T14:20:22.684Z,102023.59
2023-01-25T14:22:30.466Z,102030.13
2023-01-25T14:24:32.392Z,102019.75
2023-01-25T14:26:39.499Z,102023.75
2023-01-25T14:28:51.247Z,102015.94
2023-01-25T14:31:02.125Z,102016.06
2023-01-25T14:33:27.913Z,102014.34
2023-01-25T14:36:16.337Z,102011.81
2023-01-25T14:38:40.261Z,102008.41
2023-01-25T14:40:42.942Z,102005.31
2023-01-25T14:42:52.913Z,102002.19
2023-01-25T14:44:58.069Z,101997.88
2023-01-25T14:47:23.399Z,101997.66
2023-01-25T14:49:25.777Z,101993.94
2023-01-25T14:51:30.941Z,101998.38
2023-01-25T14:53:34.860Z,101991.56
2023-01-25T14:55:37.827Z,101980.91
2023-01-25T14:57:41.584Z,101984.03
2023-01-25T14:59:51.206Z,101978.34
2023-01-25T15:02:02.664Z,101974.72
2023-01-25T15:04:09.713Z,101975.25
2023-01-25T15:06:13.977Z,101975.19
2023-01-25T15:08:40.925Z,101973.38
2023-01-25T15:11:19.700Z,101971.41
2023-01-25T15:13:25.914Z,101963.34
2023-01-25T15:15:36.296Z,101965.44
2023-01-25T15:17:48.077Z,101958.78
2023-01-25T15:20:05.735Z,101962.41
2023-01-25T15:22:09.126Z,101962.41
2023-01-25T15:24:12.600Z,101958.06
2023-01-25T15:26:22.017Z,101950.41
2023-01-25T15:28:28.105Z,101948.13
2023-01-25T15:30:30.058Z,101958.19
2023-01-25T15:32:32.084Z,101947.31
2023-01-25T15:34:34.252Z,101946.44
2023-01-25T15:36:36.157Z,101935.44
2023-01-25T15:38:38.078Z,101927.31
2023-01-25T15:40:42.739Z,101935.72
2023-01-25T15:42:45.859Z,101937.97
2023-01-25T15:44:47.881Z,101944.41
2023-01-25T15:46:52.486Z,101928.69
2023-01-25T15:48:55.763Z,101930.63
2023-01-25T15:50:58.256Z,101933.97
2023-01-25T15:53:06.495Z,101925.03
2023-01-25T15:55:12.769Z,101921.72
2023-01-25T15:57:34.906Z,101925.56
2023-01-25T15:59:36.916Z,101921.16
2023-01-25T16:01:38.910Z,101918.16
2023-01-25T16:03:42.000Z,101922.38
2023-01-25T16:05:45.352Z,101918.72
2023-01-25T16:07:47.644Z,101917.28
2023-01-25T16:09:50.927Z,101909.91
2023-01-25T16:11:58.854Z,101918.75
2023-01-25T16:14:01.315Z,101914.53
2023-01-25T16:16:19.191Z,101916.13
2023-01-25T16:18:23.822Z,101916.13
2023-01-25T16:20:25.997Z,101905.13
2023-01-25T16:22:30.161Z,101901.63
2023-01-25T16:24:34.265Z,101900.16
2023-01-25T16:26:40.242Z,101895.38
2023-01-25T16:28:43.359Z,101890.19
2023-01-25T16:30:45.694Z,101890.00
2023-01-25T16:32:50.323Z,101890.00
2023-01-25T16:34:52.320Z,101890.56
2023-01-25T16:36:54.880Z,101887.66
2023-01-25T16:39:08.132Z,101886.97
2023-01-25T16:41:14.520Z,101886.44
2023-01-25T16:43:19.285Z,101879.88
2023-01-25T16:45:28.892Z,101881.03
2023-01-25T16:47:33.263Z,101879.22
2023-01-25T16:49:36.413Z,101875.88
2023-01-25T16:51:41.069Z,101875.81
2023-01-25T16:53:43.772Z,101870.13
2023-01-25T16:55:49.755Z,101862.44
2023-01-25T16:57:53.273Z,101864.72
2023-01-25T16:59:55.661Z,101853.31
2023-01-25T17:01:58.870Z,101853.09
2023-01-25T17:04:01.559Z,101853.34
2023-01-25T17:06:07.297Z,101847.19
2023-01-25T17:08:11.440Z,101843.81
2023-01-25T17:10:17.434Z,101837.22
2023-01-25T17:12:19.980Z,101833.78
2023-01-25T17:14:27.994Z,101840.22
2023-01-25T17:16:33.591Z,101838.94
2023-01-25T17:18:36.628Z,101835.59
2023-01-25T17:20:39.779Z,101839.88
2023-01-25T17:22:43.028Z,101833.03
2023-01-25T17:24:46.536Z,101826.09
2023-01-25T17:27:02.142Z,101822.09
2023-01-25T17:29:10.454Z,101822.72
2023-01-25T17:31:27.749Z,101811.81
2023-01-25T17:33:32.881Z,101814.53
2023-01-25T17:35:43.560Z,101822.03
2023-01-25T17:37:46.499Z,101807.47
2023-01-25T17:39:56.231Z,101817.75
2023-01-25T17:41:59.006Z,101819.69
2023-01-25T17:44:01.595Z,101816.16
2023-01-25T17:46:22.157Z,101811.94
2023-01-25T17:48:30.954Z,101807.72
2023-01-25T17:50:34.105Z,101802.66
2023-01-25T17:52:42.043Z,101808.72
2023-01-25T17:54:45.821Z,101805.41
2023-01-25T17:56:56.323Z,101800.97
2023-01-25T17:59:09.322Z,101797.56
2023-01-25T18:01:20.807Z,101797.69
2023-01-25T18:03:23.912Z,101790.16
2023-01-25T18:05:31.203Z,101786.06
2023-01-25T18:07:37.508Z,101786.19
2023-01-25T18:09:43.136Z,101785.94
2023-01-25T18:11:49.216Z,101785.81
2023-01-25T18:14:01.549Z,101774.97
2023-01-25T18:16:07.623Z,101775.91
2023-01-25T18:18:10.971Z,101787.00
2023-01-25T18:20:21.236Z,101776.44
2023-01-25T18:22:26.214Z,101779.69
2023-01-25T18:24:36.752Z,101773.78
2023-01-25T18:26:41.665Z,101782.22
2023-01-25T18:28:52.019Z,101783.94
2023-01-25T18:31:07.237Z,101789.16
2023-01-25T18:33:11.931Z,101789.03
2023-01-25T18:35:14.736Z,101789.03
2023-01-25T18:37:29.654Z,101785.94
2023-01-25T18:39:34.763Z,101776.41
2023-01-25T18:41:45.555Z,101778.94
2023-01-25T18:43:51.324Z,101780.66
2023-01-25T18:46:00.387Z,101784.06
2023-01-25T18:48:06.913Z,101780.00
2023-01-25T18:50:11.296Z,101773.91
2023-01-25T18:52:22.259Z,101777.63
2023-01-25T18:54:26.660Z,101774.00
2023-01-25T18:56:34.426Z,101762.56
2023-01-25T18:58:39.047Z,101767.22
2023-01-25T19:00:43.580Z,101768.22
2023-01-25T19:02:49.855Z,101765.63
2023-01-25T19:04:54.555Z,101773.38
2023-01-25T19:06:59.283Z,101763.28
2023-01-25T19:09:02.739Z,101763.75
2023-01-25T19:11:07.634Z,101761.09
2023-01-25T19:13:11.934Z,101756.13
2023-01-25T19:15:16.364Z,101752.53
2023-01-25T19:19:37.794Z,101750.59
2023-01-25T19:21:42.041Z,101747.31
2023-01-25T19:23:47.500Z,101747.31
2023-01-25T19:25:58.563Z,101740.59
2023-01-25T19:28:02.890Z,101734.94
2023-01-25T19:30:08.602Z,101736.53
2023-01-25T19:32:11.210Z,101735.09
2023-01-25T19:34:16.166Z,101734.13
2023-01-25T19:36:20.552Z,101728.97
2023-01-25T19:38:26.509Z,101731.72
2023-01-25T19:40:29.728Z,101728.50
2023-01-25T19:42:34.484Z,101726.75
2023-01-25T19:44:38.050Z,101728.53
2023-01-25T19:46:43.987Z,101723.88
2023-01-25T19:48:50.493Z,101725.88
2023-01-25T19:50:54.823Z,101725.16
2023-01-25T19:53:05.047Z,101726.00
2023-01-25T19:55:09.015Z,101727.34
2023-01-25T19:57:12.388Z,101721.53
2023-01-25T19:59:19.793Z,101721.53
2023-01-25T20:01:26.181Z,101713.25
2023-01-25T20:03:34.229Z,101704.63
2023-01-25T20:05:37.191Z,101698.66
2023-01-25T20:07:42.405Z,101700.38
2023-01-25T20:09:50.157Z,101701.19
2023-01-25T20:11:58.735Z,101695.16
2023-01-25T20:14:08.767Z,101687.66
2023-01-25T20:16:14.535Z,101686.72
2023-01-25T20:18:17.670Z,101683.41
2023-01-25T20:20:20.374Z,101680.25
2023-01-25T20:22:25.974Z,101680.41
2023-01-25T20:24:29.726Z,101673.81
2023-01-25T20:26:39.491Z,101675.31
2023-01-25T20:29:12.053Z,101678.44
2023-01-25T20:31:37.999Z,101675.81
2023-01-25T20:33:41.333Z,101672.44
2023-01-25T20:35:52.072Z,101671.50
2023-01-25T20:37:56.747Z,101664.13
2023-01-25T20:40:05.152Z,101668.81
2023-01-25T20:42:17.619Z,101661.34
2023-01-25T20:44:21.016Z,101669.03
2023-01-25T20:46:26.322Z,101659.63
2023-01-25T20:48:37.252Z,101656.38
2023-01-25T20:50:41.092Z,101655.94
2023-01-25T20:52:54.354Z,101658.47
2023-01-25T20:55:07.087Z,101654.66
2023-01-25T20:57:17.094Z,101655.50
2023-01-25T20:59:22.114Z,101659.63
2023-01-25T21:01:31.162Z,101654.94
2023-01-25T21:03:40.794Z,101647.81
2023-01-25T21:05:56.973Z,101651.44
2023-01-25T21:08:01.131Z,101647.16
2023-01-25T21:10:03.993Z,101640.38
2023-01-25T21:12:16.333Z,101642.03
2023-01-25T21:14:20.176Z,101654.09
2023-01-25T21:16:25.033Z,101639.63
2023-01-25T21:18:35.666Z,101647.22
2023-01-25T21:20:39.638Z,101646.28
2023-01-25T21:22:42.544Z,101643.00
2023-01-25T21:24:55.831Z,101649.00
2023-01-25T21:26:58.452Z,101632.94
2023-01-25T21:29:04.197Z,101632.91
2023-01-25T21:31:16.602Z,101632.94
2023-01-25T21:33:23.406Z,101628.81
2023-01-25T21:35:33.863Z,101623.63
2023-01-25T21:37:37.740Z,101622.03
2023-01-25T21:39:45.933Z,101632.13
2023-01-25T21:41:48.373Z,101629.78
2023-01-25T21:44:12.553Z,101626.38
2023-01-25T21:46:15.225Z,101628.25
2023-01-25T21:48:38.793Z,101628.06
2023-01-25T21:51:13.089Z,101626.25
2023-01-25T21:53:15.332Z,101624.03
2023-01-25T21:55:19.966Z,101621.41
2023-01-25T21:57:28.690Z,101627.19
2023-01-25T21:59:32.870Z,101624.03
2023-01-25T22:01:34.991Z,101624.88
2023-01-25T22:03:37.609Z,101622.88
2023-01-25T22:05:39.626Z,101622.78
2023-01-25T22:07:41.662Z,101620.31
2023-01-25T22:09:49.655Z,101613.97
2023-01-25T22:11:53.676Z,101607.84
2023-01-25T22:13:56.672Z,101613.00
2023-01-25T22:16:00.247Z,101610.50
2023-01-25T22:18:02.303Z,101614.34
2023-01-25T22:20:05.983Z,101614.34
2023-01-25T22:22:08.035Z,101609.34
2023-01-25T22:24:17.313Z,101603.50
2023-01-25T22:26:22.096Z,101601.44
2023-01-25T22:28:43.512Z,101604.00
2023-01-25T22:30:48.518Z,101606.13
2023-01-25T22:32:52.515Z,101607.56
2023-01-25T22:34:58.473Z,101602.28
2023-01-25T22:37:01.455Z,101598.78
2023-01-25T22:39:03.599Z,101599.72
2023-01-25T22:41:18.783Z,101594.66
2023-01-25T22:43:25.827Z,101586.91
2023-01-25T22:45:32.760Z,101586.19
2023-01-25T22:47:36.706Z,101590.47
2023-01-25T22:49:40.657Z,101586.91
2023-01-25T22:51:58.562Z,101573.38
2023-01-25T22:54:01.574Z,101578.56
2023-01-25T22:56:24.964Z,101578.53
2023-01-25T22:58:31.343Z,101578.34
2023-01-25T23:00:34.284Z,101577.81
2023-01-25T23:02:38.078Z,101574.19
2023-01-25T23:04:43.218Z,101578.44
2023-01-25T23:06:48.350Z,101567.47
2023-01-25T23:09:03.512Z,101561.50
2023-01-25T23:11:11.626Z,101559.84
2023-01-25T23:13:15.544Z,101555.66
2023-01-25T23:15:17.618Z,101558.31
2023-01-25T23:17:40.559Z,101553.13
2023-01-25T23:19:42.499Z,101541.28
2023-01-25T23:21:46.449Z,101538.84
2023-01-25T23:23:52.094Z,101532.06
2023-01-25T23:26:01.519Z,101522.78
2023-01-25T23:28:03.430Z,101529.38
2023-01-25T23:30:07.482Z,101518.44
2023-01-25T23:32:09.487Z,101517.50
2023-01-25T23:34:12.833Z,101522.50
2023-01-25T23:36:20.901Z,101517.50
2023-01-25T23:38:28.599Z,101515.88
2023-01-25T23:40:39.520Z,101514.03
2023-01-25T23:42:42.225Z,101508.91
2023-01-25T23:44:53.207Z,101510.81
2023-01-25T23:47:01.822Z,101509.06
2023-01-25T23:49:04.770Z,101497.28
2023-01-25T23:51:06.807Z,101500.75
2023-01-25T23:53:08.767Z,101497.28
2023-01-25T23:55:16.644Z,101490.59
2023-01-25T23:57:18.596Z,101493.13
2023-01-25T23:59:20.680Z,101492.31
